Time;durP1;ratioP1;P1;durP2;ratioP2;P2;SDS_P1;SDS_P2;PMS_P1;PMS_P2;Temp;Humidity;BMP_temperature;BMP_pressure;BME280_temperature;BME280_humidity;BME280_pressure;Samples;Min_cycle;Max_cycle;Signal;HPM_P1;HPM_P2
2023/02/09 00:01:14;;;;;;;7.43;6.73;;;;;;;;;;5056188;28;20025;-54
2023/02/09 00:03:41;;;;;;;9.63;7.63;;;;;;;;;;5055987;28;20028;-54
2023/02/09 00:06:07;;;;;;;11.80;9.23;;;;;;;;;;5056701;28;20040;-53
2023/02/09 00:08:34;;;;;;;9.23;5.53;;;;;;;;;;5056084;28;20028;-51
2023/02/09 00:11:00;;;;;;;10.60;7.37;;;;;;;;;;5056256;28;20433;-54
2023/02/09 00:13:27;;;;;;;8.70;7.77;;;;;;;;;;5055599;28;20028;-55
2023/02/09 00:15:54;;;;;;;10.77;7.17;;;;;;;;;;5055990;28;20407;-56
2023/02/09 00:18:20;;;;;;;15.07;6.80;;;;;;;;;;5056155;28;20082;-50
2023/02/09 00:20:54;;;;;;;7.83;7.07;;;;;;;;;;5055740;28;20033;-55
2023/02/09 00:23:20;;;;;;;9.83;5.87;;;;;;;;;;5056214;28;20029;-52
2023/02/09 00:25:46;;;;;;;11.17;6.40;;;;;;;;;;5056135;28;20039;-51
2023/02/09 00:28:12;;;;;;;7.43;5.33;;;;;;;;;;5056229;28;20029;-56
2023/02/09 00:30:38;;;;;;;12.37;6.50;;;;;;;;;;5055568;28;20065;-51
2023/02/09 00:33:04;;;;;;;8.70;6.67;;;;;;;;;;5055281;28;20079;-53
2023/02/09 00:35:30;;;;;;;13.20;7.43;;;;;;;;;;5055833;28;20051;-55
2023/02/09 00:37:56;;;;;;;10.60;7.17;;;;;;;;;;5055430;28;20451;-55
2023/02/09 00:40:22;;;;;;;10.57;8.43;;;;;;;;;;5055470;28;20025;-56
2023/02/09 00:42:48;;;;;;;8.20;5.50;;;;;;;;;;5055230;28;20461;-54
2023/02/09 00:45:14;;;;;;;10.40;7.57;;;;;;;;;;5055294;28;20143;-53
2023/02/09 00:47:40;;;;;;;8.03;5.63;;;;;;;;;;5055287;28;20029;-53
2023/02/09 00:50:07;;;;;;;5.60;5.07;;;;;;;;;;5055652;28;20439;-56
2023/02/09 00:52:33;;;;;;;8.13;5.47;;;;;;;;;;5054580;28;20028;-56
2023/02/09 00:54:59;;;;;;;11.27;8.27;;;;;;;;;;5055070;28;20087;-52
2023/02/09 00:57:25;;;;;;;10.73;7.67;;;;;;;;;;5055080;28;20509;-53
2023/02/09 00:59:51;;;;;;;9.30;7.37;;;;;;;;;;5055275;28;20052;-51
2023/02/09 01:02:17;;;;;;;7.13;4.83;;;;;;;;;;5054431;28;20053;-52
2023/02/09 01:04:43;;;;;;;5.80;5.23;;;;;;;;;;5054822;28;20033;-55
2023/02/09 01:07:09;;;;;;;11.67;6.90;;;;;;;;;;5054789;28;20051;-55
2023/02/09 01:09:35;;;;;;;7.17;5.27;;;;;;;;;;5054685;28;20025;-53
2023/02/09 01:12:01;;;;;;;10.23;5.90;;;;;;;;;;5054738;28;20029;-54
2023/02/09 01:14:27;;;;;;;10.87;7.53;;;;;;;;;;5054436;28;20044;-52
2023/02/09 01:16:53;;;;;;;7.53;5.57;;;;;;;;;;5054568;28;20032;-51
2023/02/09 01:19:19;;;;;;;12.07;6.87;;;;;;;;;;5054119;28;20494;-52
2023/02/09 01:21:46;;;;;;;9.10;6.97;;;;;;;;;;5054594;28;20454;-55
2023/02/09 01:24:13;;;;;;;8.23;6.00;;;;;;;;;;5054411;28;20138;-50
2023/02/09 01:26:39;;;;;;;8.80;6.17;;;;;;;;;;5054505;28;20029;-50
2023/02/09 01:29:05;;;;;;;11.47;8.10;;;;;;;;;;5054332;28;20035;-49
2023/02/09 01:31:32;;;;;;;10.57;8.40;;;;;;;;;;5054289;28;20366;-49
2023/02/09 01:33:59;;;;;;;8.77;6.70;;;;;;;;;;5054540;28;20055;-53
2023/02/09 01:36:25;;;;;;;11.53;6.73;;;;;;;;;;5053694;28;20024;-53
2023/02/09 01:38:53;;;;;;;7.07;5.90;;;;;;;;;;5054071;28;20056;-51
2023/02/09 01:41:19;;;;;;;16.50;9.60;;;;;;;;;;5054134;28;20027;-53
2023/02/09 01:43:57;;;;;;;11.80;8.43;;;;;;;;;;5054473;28;20108;-53
2023/02/09 01:46:24;;;;;;;6.00;4.27;;;;;;;;;;5054378;28;20040;-52
2023/02/09 01:48:53;;;;;;;6.10;5.37;;;;;;;;;;5054472;28;20075;-51
2023/02/09 01:51:19;;;;;;;10.47;8.77;;;;;;;;;;5054710;28;20051;-48
2023/02/09 01:53:45;;;;;;;10.97;7.97;;;;;;;;;;5053877;28;20104;-52
2023/02/09 01:56:14;;;;;;;8.60;6.10;;;;;;;;;;5053979;28;20060;-51
2023/02/09 01:58:40;;;;;;;9.03;6.67;;;;;;;;;;5054148;28;20097;-49
2023/02/09 02:01:06;;;;;;;8.97;6.47;;;;;;;;;;5053824;28;20053;-48
2023/02/09 02:03:32;;;;;;;9.83;8.47;;;;;;;;;;5054567;28;20037;-48
2023/02/09 02:06:00;;;;;;;10.10;7.80;;;;;;;;;;5054388;28;20425;-49
2023/02/09 02:08:37;;;;;;;7.53;5.93;;;;;;;;;;5054189;28;20033;-53
2023/02/09 02:11:04;;;;;;;7.50;5.80;;;;;;;;;;5054481;28;20029;-54
2023/02/09 02:13:30;;;;;;;9.63;7.37;;;;;;;;;;5053767;28;20470;-49
2023/02/09 02:15:56;;;;;;;12.97;6.97;;;;;;;;;;5054407;28;20112;-52
2023/02/09 02:18:42;;;;;;;7.70;5.73;;;;;;;;;;5053424;28;20177;-53
2023/02/09 02:21:14;;;;;;;8.67;7.07;;;;;;;;;;5054302;28;20025;-48
2023/02/09 02:23:47;;;;;;;10.57;7.27;;;;;;;;;;5053958;28;20099;-51
2023/02/09 02:26:32;;;;;;;20.27;6.43;;;;;;;;;;5053911;28;20482;-51
2023/02/09 02:29:16;;;;;;;9.10;7.93;;;;;;;;;;5053836;28;20425;-54
2023/02/09 02:31:45;;;;;;;8.23;7.37;;;;;;;;;;5054186;28;20083;-51
2023/02/09 02:34:20;;;;;;;8.80;6.57;;;;;;;;;;5053596;28;20033;-48
2023/02/09 02:36:50;;;;;;;13.10;6.37;;;;;;;;;;5054138;28;20029;-53
2023/02/09 02:39:16;;;;;;;9.35;8.40;;;;;;;;;;5053771;28;20029;-53
2023/02/09 02:42:48;;;;;;;18.20;8.57;;;;;;;;;;5053805;28;20025;-51
2023/02/09 02:44:45;;;;;;;9.13;8.07;;;;;;;;;;5052691;28;20055;-54
2023/02/09 02:47:15;;;;;;;8.70;7.23;;;;;;;;;;5053523;28;20040;-49
2023/02/09 02:49:56;;;;;;;17.70;8.83;;;;;;;;;;5053726;28;20028;-52
2023/02/09 02:52:22;;;;;;;12.20;9.53;;;;;;;;;;5054083;28;20040;-52
2023/02/09 02:54:56;;;;;;;9.17;7.23;;;;;;;;;;5053444;28;20036;-51
2023/02/09 02:57:26;;;;;;;13.77;7.60;;;;;;;;;;5053504;28;20459;-50
2023/02/09 02:59:54;;;;;;;10.27;8.03;;;;;;;;;;5053609;28;20035;-50
2023/02/09 03:02:22;;;;;;;14.23;9.03;;;;;;;;;;5053739;28;20049;-54
2023/02/09 03:04:51;;;;;;;12.37;6.73;;;;;;;;;;5054019;28;20029;-52
2023/02/09 03:07:19;;;;;;;10.70;7.00;;;;;;;;;;5053307;28;20132;-48
2023/02/09 03:09:49;;;;;;;13.17;8.63;;;;;;;;;;5053308;28;20669;-55
2023/02/09 03:12:23;;;;;;;14.10;10.40;;;;;;;;;;5053419;28;20025;-53
2023/02/09 03:15:01;;;;;;;10.27;8.80;;;;;;;;;;5054930;28;20108;-50
2023/02/09 03:17:27;;;;;;;12.53;10.00;;;;;;;;;;5056884;28;20032;-50
2023/02/09 03:20:05;;;;;;;13.30;7.70;;;;;;;;;;5057159;28;20029;-50
2023/02/09 03:22:42;;;;;;;25.27;9.40;;;;;;;;;;5057352;28;20484;-50
2023/02/09 03:25:17;;;;;;;10.10;8.80;;;;;;;;;;5057287;28;20021;-49
2023/02/09 03:27:47;;;;;;;13.47;8.40;;;;;;;;;;5056715;28;20108;-53
2023/02/09 03:30:15;;;;;;;16.58;8.13;;;;;;;;;;5056939;28;20104;-54
2023/02/09 03:32:41;;;;;;;13.93;9.93;;;;;;;;;;5057106;28;20040;-54
2023/02/09 03:35:10;;;;;;;9.07;8.00;;;;;;;;;;5056605;28;20028;-54
2023/02/09 03:37:36;;;;;;;19.23;7.37;;;;;;;;;;5056841;28;20108;-50
2023/02/09 03:40:02;;;;;;;9.30;8.30;;;;;;;;;;5057039;28;20064;-49
2023/02/09 03:42:28;;;;;;;8.87;7.53;;;;;;;;;;5056926;28;20021;-53
2023/02/09 03:44:54;;;;;;;12.30;8.30;;;;;;;;;;5056847;28;20107;-51
2023/02/09 03:47:20;;;;;;;12.87;9.87;;;;;;;;;;5056725;28;20029;-54
2023/02/09 03:49:45;;;;;;;14.77;9.33;;;;;;;;;;5056322;28;20029;-49
2023/02/09 03:52:12;;;;;;;12.10;9.27;;;;;;;;;;5056683;28;20025;-50
2023/02/09 03:54:39;;;;;;;9.87;8.13;;;;;;;;;;5056765;28;20159;-48
2023/02/09 03:57:10;;;;;;;18.87;10.83;;;;;;;;;;5056627;28;20048;-54
2023/02/09 03:59:37;;;;;;;7.40;6.77;;;;;;;;;;5056262;28;20118;-54
2023/02/09 04:02:04;;;;;;;11.40;9.03;;;;;;;;;;5056111;28;20049;-53
2023/02/09 04:04:30;;;;;;;11.90;7.77;;;;;;;;;;5055837;28;20564;-51
2023/02/09 04:06:56;;;;;;;13.30;9.27;;;;;;;;;;5055906;28;20039;-52
2023/02/09 04:09:22;;;;;;;8.17;7.43;;;;;;;;;;5055960;28;20056;-51
2023/02/09 04:11:48;;;;;;;7.67;6.30;;;;;;;;;;5056076;28;20104;-54
2023/02/09 04:14:14;;;;;;;13.93;9.83;;;;;;;;;;5055885;28;20029;-51
2023/02/09 04:16:40;;;;;;;15.03;9.50;;;;;;;;;;5056196;28;20465;-53
2023/02/09 04:19:08;;;;;;;12.23;10.17;;;;;;;;;;5055731;28;20103;-53
2023/02/09 04:21:38;;;;;;;12.00;9.53;;;;;;;;;;5055831;28;20446;-50
2023/02/09 04:24:04;;;;;;;8.40;7.53;;;;;;;;;;5056646;28;20025;-51
2023/02/09 04:26:30;;;;;;;9.87;8.50;;;;;;;;;;5054617;28;20258;-48
2023/02/09 04:28:56;;;;;;;8.87;7.47;;;;;;;;;;5055735;28;20024;-53
2023/02/09 04:31:22;;;;;;;18.57;9.33;;;;;;;;;;5056043;28;20086;-51
2023/02/09 04:33:48;;;;;;;12.57;10.03;;;;;;;;;;5055690;28;20028;-50
2023/02/09 04:36:14;;;;;;;10.27;9.20;;;;;;;;;;5056342;28;20021;-47
2023/02/09 04:38:40;;;;;;;13.00;7.43;;;;;;;;;;5056199;28;20102;-49
2023/02/09 04:41:06;;;;;;;9.57;7.40;;;;;;;;;;5055554;28;20147;-53
2023/02/09 04:43:33;;;;;;;16.57;9.57;;;;;;;;;;5055526;28;20344;-53
2023/02/09 04:45:59;;;;;;;15.07;9.47;;;;;;;;;;5055982;28;20057;-51
2023/02/09 04:48:26;;;;;;;10.07;6.90;;;;;;;;;;5055662;28;20420;-51
2023/02/09 04:50:52;;;;;;;12.93;8.63;;;;;;;;;;5055755;28;20071;-54
2023/02/09 04:53:19;;;;;;;11.33;8.53;;;;;;;;;;5055356;28;20036;-50
2023/02/09 04:55:45;;;;;;;11.63;9.37;;;;;;;;;;5055525;28;20059;-53
2023/02/09 05:00:58;;;;;;;11.97;9.43;;;;;;;;;;5055325;28;20112;-52
2023/02/09 05:03:27;;;;;;;12.03;9.07;;;;;;;;;;5055147;28;20112;-50
2023/02/09 05:05:57;;;;;;;10.03;8.00;;;;;;;;;;5055657;28;20102;-52
2023/02/09 05:08:23;;;;;;;15.47;8.50;;;;;;;;;;5055074;28;20029;-50
2023/02/09 05:10:50;;;;;;;9.77;8.97;;;;;;;;;;5054967;28;20446;-53
2023/02/09 05:13:16;;;;;;;12.67;7.93;;;;;;;;;;5055260;28;20406;-52
2023/02/09 05:15:42;;;;;;;9.83;8.93;;;;;;;;;;5055366;28;20037;-51
2023/02/09 05:18:08;;;;;;;7.80;6.77;;;;;;;;;;5054657;28;20374;-50
2023/02/09 05:20:35;;;;;;;13.17;7.83;;;;;;;;;;5054823;28;20036;-52
2023/02/09 05:23:01;;;;;;;8.97;8.20;;;;;;;;;;5054692;28;20021;-51
2023/02/09 05:25:27;;;;;;;10.90;9.23;;;;;;;;;;5054649;28;20171;-52
2023/02/09 05:27:53;;;;;;;10.00;7.47;;;;;;;;;;5054711;28;20112;-54
2023/02/09 05:30:19;;;;;;;13.97;9.97;;;;;;;;;;5054569;28;20036;-49
2023/02/09 05:32:45;;;;;;;8.30;7.20;;;;;;;;;;5054587;28;20024;-52
2023/02/09 05:35:11;;;;;;;13.57;10.27;;;;;;;;;;5055278;28;20111;-51
2023/02/09 05:37:37;;;;;;;15.23;8.77;;;;;;;;;;5054161;28;20140;-49
2023/02/09 05:40:03;;;;;;;12.07;9.00;;;;;;;;;;5054281;28;20024;-50
2023/02/09 05:42:29;;;;;;;12.00;7.80;;;;;;;;;;5053979;28;20466;-53
2023/02/09 05:44:55;;;;;;;11.10;8.00;;;;;;;;;;5054307;28;20360;-50
2023/02/09 05:47:23;;;;;;;11.23;10.00;;;;;;;;;;5054256;28;20150;-50
2023/02/09 05:49:49;;;;;;;13.37;9.33;;;;;;;;;;5054137;28;20036;-51
2023/02/09 05:52:15;;;;;;;12.20;8.90;;;;;;;;;;5054244;28;20040;-48
2023/02/09 05:54:41;;;;;;;9.63;8.67;;;;;;;;;;5054664;28;20028;-54
2023/02/09 05:57:07;;;;;;;11.30;10.23;;;;;;;;;;5054174;28;20489;-53
2023/02/09 05:59:33;;;;;;;11.83;8.80;;;;;;;;;;5054861;28;20029;-52
2023/02/09 06:01:59;;;;;;;11.07;7.90;;;;;;;;;;5053586;28;20056;-52
2023/02/09 06:04:25;;;;;;;16.70;10.03;;;;;;;;;;5053825;28;20154;-49
2023/02/09 06:06:51;;;;;;;9.13;8.03;;;;;;;;;;5053667;28;20448;-52
2023/02/09 06:09:18;;;;;;;12.20;9.13;;;;;;;;;;5053941;28;20067;-53
2023/02/09 06:11:44;;;;;;;9.60;8.60;;;;;;;;;;5054411;28;20021;-51
2023/02/09 06:14:10;;;;;;;13.37;8.97;;;;;;;;;;5053746;28;20528;-53
2023/02/09 06:16:36;;;;;;;10.93;9.07;;;;;;;;;;5054530;28;20025;-51
2023/02/09 06:19:02;;;;;;;8.43;7.33;;;;;;;;;;5054013;28;20025;-50
2023/02/09 06:21:28;;;;;;;8.77;8.03;;;;;;;;;;5053639;28;20481;-53
2023/02/09 06:23:54;;;;;;;10.83;7.53;;;;;;;;;;5053660;28;20025;-53
2023/02/09 06:26:20;;;;;;;11.87;8.27;;;;;;;;;;5053456;28;20451;-51
2023/02/09 06:28:46;;;;;;;19.37;8.73;;;;;;;;;;5053796;28;20039;-51
2023/02/09 06:31:12;;;;;;;9.73;7.83;;;;;;;;;;5054274;28;20104;-49
2023/02/09 06:33:39;;;;;;;12.27;8.47;;;;;;;;;;5053307;28;20024;-52
2023/02/09 06:36:05;;;;;;;14.13;6.93;;;;;;;;;;5053664;28;20056;-52
2023/02/09 06:38:32;;;;;;;11.73;7.43;;;;;;;;;;5053864;28;20399;-49
2023/02/09 06:40:58;;;;;;;17.93;11.07;;;;;;;;;;5053615;28;20486;-52
2023/02/09 06:43:24;;;;;;;11.50;9.03;;;;;;;;;;5053290;28;20024;-52
2023/02/09 06:45:50;;;;;;;9.23;8.03;;;;;;;;;;5053468;28;20033;-54
2023/02/09 06:48:16;;;;;;;8.27;7.63;;;;;;;;;;5053563;28;20055;-49
2023/02/09 06:50:42;;;;;;;14.33;7.70;;;;;;;;;;5056877;28;20025;-52
2023/02/09 06:53:08;;;;;;;12.17;10.10;;;;;;;;;;5057302;28;20033;-51
2023/02/09 06:55:35;;;;;;;13.50;10.93;;;;;;;;;;5057621;28;20086;-49
2023/02/09 06:58:01;;;;;;;8.73;7.93;;;;;;;;;;5057748;28;20514;-54
2023/02/09 07:00:27;;;;;;;9.17;7.73;;;;;;;;;;5057068;28;20530;-52
2023/02/09 07:02:53;;;;;;;15.07;9.73;;;;;;;;;;5057806;28;20088;-52
2023/02/09 07:05:19;;;;;;;9.80;8.77;;;;;;;;;;5057162;28;20419;-51
2023/02/09 07:07:45;;;;;;;10.33;6.73;;;;;;;;;;5057392;28;20086;-48
2023/02/09 07:10:13;;;;;;;13.67;10.83;;;;;;;;;;5057622;28;20049;-52
2023/02/09 07:12:44;;;;;;;17.30;9.73;;;;;;;;;;5057053;28;20100;-52
2023/02/09 07:15:11;;;;;;;12.73;8.57;;;;;;;;;;5056828;28;20107;-49
2023/02/09 07:17:37;;;;;;;11.57;9.27;;;;;;;;;;5057093;28;20069;-49
2023/02/09 07:20:03;;;;;;;10.43;7.67;;;;;;;;;;5057124;28;20017;-54
2023/02/09 07:22:29;;;;;;;11.70;9.23;;;;;;;;;;5056701;28;20025;-49
2023/02/09 07:24:55;;;;;;;17.57;11.20;;;;;;;;;;5057313;28;20033;-48
2023/02/09 07:27:22;;;;;;;14.50;12.70;;;;;;;;;;5057344;28;20048;-47
2023/02/09 07:29:48;;;;;;;11.80;10.63;;;;;;;;;;5056913;28;20386;-48
2023/02/09 07:32:14;;;;;;;11.83;9.70;;;;;;;;;;5057356;28;20100;-48
2023/02/09 07:34:40;;;;;;;13.47;10.43;;;;;;;;;;5057387;28;20402;-53
2023/02/09 07:37:06;;;;;;;13.20;11.53;;;;;;;;;;5057097;28;20070;-54
2023/02/09 07:39:31;;;;;;;11.00;9.17;;;;;;;;;;5057329;28;20024;-54
2023/02/09 07:41:58;;;;;;;14.63;13.27;;;;;;;;;;5057263;28;20071;-54
2023/02/09 07:44:24;;;;;;;20.30;13.27;;;;;;;;;;5056693;28;20056;-54
2023/02/09 07:46:50;;;;;;;9.67;7.30;;;;;;;;;;5056661;28;20029;-53
2023/02/09 07:49:16;;;;;;;12.47;10.87;;;;;;;;;;5056543;28;20040;-53
2023/02/09 07:51:42;;;;;;;20.53;15.23;;;;;;;;;;5056486;28;20029;-53
2023/02/09 07:54:12;;;;;;;12.83;11.70;;;;;;;;;;5056245;28;20025;-55
2023/02/09 07:56:38;;;;;;;15.83;10.50;;;;;;;;;;5056954;28;20382;-53
2023/02/09 07:59:05;;;;;;;15.17;11.47;;;;;;;;;;5056998;28;20021;-52
2023/02/09 08:01:31;;;;;;;24.77;11.40;;;;;;;;;;5056776;28;20076;-52
2023/02/09 08:03:57;;;;;;;15.30;12.80;;;;;;;;;;5056362;28;20033;-52
2023/02/09 08:06:29;;;;;;;12.37;9.73;;;;;;;;;;5056681;28;20079;-54
2023/02/09 08:08:55;;;;;;;15.57;11.63;;;;;;;;;;5056291;28;20033;-49
2023/02/09 08:11:23;;;;;;;20.23;14.70;;;;;;;;;;5054651;28;20023;-53
2023/02/09 08:13:50;;;;;;;17.70;14.07;;;;;;;;;;5055594;28;20405;-54
2023/02/09 08:16:18;;;;;;;21.23;13.13;;;;;;;;;;5056522;28;20064;-55
2023/02/09 08:18:47;;;;;;;14.43;12.87;;;;;;;;;;5056402;28;20049;-51
2023/02/09 08:21:13;;;;;;;17.60;15.53;;;;;;;;;;5055521;28;20025;-55
2023/02/09 08:23:40;;;;;;;15.53;13.97;;;;;;;;;;5055754;28;20025;-55
2023/02/09 08:26:07;;;;;;;14.27;12.87;;;;;;;;;;5055886;28;20103;-52
2023/02/09 08:28:34;;;;;;;18.43;12.23;;;;;;;;;;5055746;28;20040;-52
2023/02/09 08:31:00;;;;;;;18.27;13.20;;;;;;;;;;5056515;28;20082;-54
2023/02/09 08:33:26;;;;;;;15.30;10.07;;;;;;;;;;5056009;28;20476;-55
2023/02/09 08:35:52;;;;;;;14.67;12.90;;;;;;;;;;5055958;28;20073;-55
2023/02/09 08:38:18;;;;;;;15.77;13.83;;;;;;;;;;5055583;28;20029;-54
2023/02/09 08:40:44;;;;;;;18.43;13.50;;;;;;;;;;5056108;28;20028;-55
2023/02/09 08:43:11;;;;;;;14.97;12.07;;;;;;;;;;5055850;28;20029;-49
2023/02/09 08:45:38;;;;;;;19.77;14.10;;;;;;;;;;5055794;28;20086;-56
2023/02/09 08:48:05;;;;;;;15.97;12.67;;;;;;;;;;5055311;28;20025;-52
2023/02/09 08:50:31;;;;;;;15.07;11.40;;;;;;;;;;5055881;28;20075;-53
2023/02/09 08:52:57;;;;;;;19.20;13.13;;;;;;;;;;5055293;28;20459;-52
2023/02/09 08:55:23;;;;;;;14.80;13.07;;;;;;;;;;5056198;28;20086;-54
2023/02/09 08:57:49;;;;;;;18.23;13.67;;;;;;;;;;5054768;28;20366;-52
2023/02/09 09:00:15;;;;;;;15.03;13.33;;;;;;;;;;5055734;28;20029;-54
2023/02/09 09:02:41;;;;;;;13.77;12.37;;;;;;;;;;5055916;28;20444;-53
2023/02/09 09:05:07;;;;;;;16.70;14.13;;;;;;;;;;5055408;28;20116;-54
2023/02/09 09:07:33;;;;;;;21.87;14.53;;;;;;;;;;5055164;28;20100;-55
2023/02/09 09:09:59;;;;;;;17.97;15.33;;;;;;;;;;5055014;28;20125;-54
2023/02/09 09:12:25;;;;;;;21.00;13.87;;;;;;;;;;5054623;28;20028;-53
2023/02/09 09:14:51;;;;;;;18.37;16.23;;;;;;;;;;5055011;28;20147;-52
2023/02/09 09:17:17;;;;;;;25.13;13.07;;;;;;;;;;5054906;28;20036;-54
2023/02/09 09:19:43;;;;;;;22.50;12.97;;;;;;;;;;5055319;28;20025;-51
2023/02/09 09:22:09;;;;;;;13.63;11.93;;;;;;;;;;5054958;28;20036;-53
2023/02/09 09:24:39;;;;;;;18.37;14.37;;;;;;;;;;5055386;28;20060;-51
2023/02/09 09:27:06;;;;;;;33.30;24.75;;;;;;;;;;5055577;28;20040;-55
2023/02/09 09:29:33;;;;;;;38.27;24.23;;;;;;;;;;5055435;28;20059;-51
2023/02/09 09:31:59;;;;;;;18.53;13.97;;;;;;;;;;5054424;28;20025;-53
2023/02/09 09:34:25;;;;;;;18.77;14.17;;;;;;;;;;5053958;28;20059;-52
2023/02/09 09:36:51;;;;;;;19.40;17.23;;;;;;;;;;5053310;28;20029;-53
2023/02/09 09:39:17;;;;;;;27.10;18.63;;;;;;;;;;5055074;28;20360;-51
2023/02/09 09:41:45;;;;;;;18.27;16.07;;;;;;;;;;5054541;28;20028;-54
2023/02/09 09:44:13;;;;;;;24.60;16.27;;;;;;;;;;5054049;28;20028;-54
2023/02/09 09:46:40;;;;;;;14.20;11.37;;;;;;;;;;5054512;28;20374;-53
2023/02/09 09:49:07;;;;;;;18.20;13.73;;;;;;;;;;5054088;28;20029;-53
2023/02/09 09:51:41;;;;;;;17.17;15.40;;;;;;;;;;5054465;28;20111;-54
2023/02/09 09:54:13;;;;;;;25.13;15.70;;;;;;;;;;5054381;28;20108;-54
2023/02/09 09:56:40;;;;;;;16.63;12.33;;;;;;;;;;5054784;28;20048;-53
2023/02/09 09:59:11;;;;;;;19.27;16.53;;;;;;;;;;5054958;28;20387;-52
2023/02/09 10:01:37;;;;;;;19.27;13.00;;;;;;;;;;5054284;28;20053;-50
2023/02/09 10:04:06;;;;;;;16.73;12.27;;;;;;;;;;5053768;28;20031;-52
2023/02/09 10:06:32;;;;;;;16.93;15.03;;;;;;;;;;5053649;28;20490;-54
2023/02/09 10:09:01;;;;;;;19.90;16.43;;;;;;;;;;5054037;28;20052;-55
2023/02/09 10:11:33;;;;;;;20.70;14.37;;;;;;;;;;5053951;28;20032;-52
2023/02/09 10:13:59;;;;;;;19.47;15.20;;;;;;;;;;5054048;28;20032;-53
2023/02/09 10:16:26;;;;;;;19.87;16.23;;;;;;;;;;5054562;28;20025;-54
2023/02/09 10:18:56;;;;;;;19.53;15.10;;;;;;;;;;5053942;28;20029;-53
2023/02/09 10:21:23;;;;;;;28.42;16.10;;;;;;;;;;5053924;28;20021;-54
2023/02/09 10:23:59;;;;;;;19.43;16.03;;;;;;;;;;5052996;28;20017;-55
2023/02/09 10:26:26;;;;;;;20.60;14.10;;;;;;;;;;5053697;28;20033;-54
2023/02/09 10:28:55;;;;;;;23.67;17.37;;;;;;;;;;5054280;28;20443;-54
2023/02/09 10:31:33;;;;;;;19.33;11.57;;;;;;;;;;5053455;28;20075;-50
2023/02/09 10:34:04;;;;;;;13.77;11.97;;;;;;;;;;5053348;28;20581;-55
2023/02/09 10:36:31;;;;;;;19.83;15.57;;;;;;;;;;5054230;28;20082;-54
2023/02/09 10:39:13;;;;;;;16.77;15.00;;;;;;;;;;5053694;28;20108;-56
2023/02/09 10:41:42;;;;;;;22.13;13.90;;;;;;;;;;5053674;28;20040;-55
2023/02/09 10:44:19;;;;;;;17.60;13.57;;;;;;;;;;5053984;28;20428;-55
2023/02/09 10:46:46;;;;;;;19.30;15.70;;;;;;;;;;5054061;28;20316;-53
2023/02/09 10:49:34;;;;;;;21.20;14.53;;;;;;;;;;5054099;28;20033;-53
2023/02/09 10:52:12;;;;;;;16.93;13.23;;;;;;;;;;5053566;28;20037;-57
2023/02/09 10:54:48;;;;;;;17.33;14.00;;;;;;;;;;5054170;28;20063;-53
2023/02/09 10:57:22;;;;;;;18.83;14.27;;;;;;;;;;5053780;28;20095;-54
2023/02/09 10:59:51;;;;;;;20.13;14.90;;;;;;;;;;5053869;28;20036;-53
2023/02/09 11:02:34;;;;;;;20.03;16.27;;;;;;;;;;5053338;28;20084;-57
2023/02/09 11:05:00;;;;;;;22.43;15.67;;;;;;;;;;5053179;28;20374;-53
2023/02/09 11:07:29;;;;;;;14.90;12.50;;;;;;;;;;5053245;28;20033;-54
2023/02/09 11:09:58;;;;;;;19.97;14.53;;;;;;;;;;5053667;28;20032;-53
2023/02/09 11:12:26;;;;;;;19.63;14.77;;;;;;;;;;5053940;28;20029;-52
2023/02/09 11:14:52;;;;;;;18.40;13.03;;;;;;;;;;5053586;28;20344;-53
2023/02/09 11:17:35;;;;;;;19.83;13.43;;;;;;;;;;5053855;28;20348;-55
2023/02/09 11:20:17;;;;;;;18.93;12.50;;;;;;;;;;5053666;28;20406;-56
2023/02/09 11:22:46;;;;;;;25.37;16.13;;;;;;;;;;5053545;28;20116;-54
2023/02/09 11:25:31;;;;;;;17.93;15.77;;;;;;;;;;5053522;28;20065;-53
2023/02/09 11:28:03;;;;;;;27.03;19.50;;;;;;;;;;5052950;28;20094;-54
2023/02/09 11:30:35;;;;;;;18.77;15.10;;;;;;;;;;5053268;28;20075;-54
2023/02/09 11:33:16;;;;;;;16.07;14.07;;;;;;;;;;5052992;28;20044;-55
2023/02/09 11:35:47;;;;;;;23.97;16.03;;;;;;;;;;5055037;28;20411;-52
2023/02/09 11:38:16;;;;;;;17.33;12.63;;;;;;;;;;5057123;28;20112;-53
2023/02/09 11:40:45;;;;;;;20.80;13.83;;;;;;;;;;5056374;28;20052;-52
2023/02/09 11:43:10;;;;;;;23.83;13.20;;;;;;;;;;5057151;28;20028;-53
2023/02/09 11:45:42;;;;;;;21.53;14.27;;;;;;;;;;5056670;28;20470;-56
2023/02/09 11:48:07;;;;;;;15.63;12.70;;;;;;;;;;5057275;28;20025;-55
2023/02/09 11:50:43;;;;;;;15.70;13.30;;;;;;;;;;5056935;28;20362;-55
2023/02/09 11:53:22;;;;;;;18.03;14.03;;;;;;;;;;5056357;28;20100;-54
2023/02/09 11:55:51;;;;;;;17.87;13.73;;;;;;;;;;5056580;28;20032;-55
2023/02/09 11:58:27;;;;;;;18.07;12.40;;;;;;;;;;5056760;28;20029;-54
2023/02/09 12:01:06;;;;;;;21.50;13.83;;;;;;;;;;5056671;28;20056;-53
2023/02/09 12:03:32;;;;;;;19.93;16.57;;;;;;;;;;5056521;28;20426;-54
2023/02/09 12:05:59;;;;;;;18.90;12.50;;;;;;;;;;5056850;28;20028;-55
2023/02/09 12:08:28;;;;;;;13.97;11.37;;;;;;;;;;5056150;28;20033;-56
2023/02/09 12:11:12;;;;;;;18.77;14.47;;;;;;;;;;5055993;28;20044;-53
2023/02/09 12:13:53;;;;;;;16.53;11.77;;;;;;;;;;5055764;28;20095;-52
2023/02/09 12:16:25;;;;;;;18.77;13.70;;;;;;;;;;5056249;28;20454;-54
2023/02/09 12:18:53;;;;;;;21.93;13.63;;;;;;;;;;5056013;28;20040;-54
2023/02/09 12:21:33;;;;;;;18.57;13.77;;;;;;;;;;5056246;28;20463;-52
2023/02/09 12:23:59;;;;;;;18.13;13.47;;;;;;;;;;5055981;28;20036;-56
2023/02/09 12:26:38;;;;;;;17.30;12.87;;;;;;;;;;5055889;28;20112;-55
2023/02/09 12:29:19;;;;;;;16.77;12.37;;;;;;;;;;5056303;28;20025;-54
2023/02/09 12:32:01;;;;;;;17.33;13.07;;;;;;;;;;5055945;28;20025;-56
2023/02/09 12:34:28;;;;;;;17.60;12.33;;;;;;;;;;5055731;28;20482;-54
2023/02/09 12:37:12;;;;;;;16.50;14.63;;;;;;;;;;5056224;28;20406;-54
2023/02/09 12:39:58;;;;;;;19.90;12.80;;;;;;;;;;5055691;28;20437;-54
2023/02/09 12:42:28;;;;;;;21.27;13.00;;;;;;;;;;5055920;28;20031;-52
2023/02/09 12:44:58;;;;;;;21.87;13.33;;;;;;;;;;5055536;28;20032;-56
2023/02/09 12:47:41;;;;;;;18.20;14.67;;;;;;;;;;5054456;28;20275;-56
2023/02/09 12:50:19;;;;;;;17.70;12.93;;;;;;;;;;5055808;28;20037;-53
2023/02/09 12:53:03;;;;;;;15.97;12.67;;;;;;;;;;5055928;28;20047;-56
2023/02/09 12:55:29;;;;;;;22.37;12.53;;;;;;;;;;5055344;28;20057;-53
2023/02/09 12:57:55;;;;;;;15.57;12.93;;;;;;;;;;5055860;28;20017;-54
2023/02/09 13:00:28;;;;;;;29.73;20.90;;;;;;;;;;5055274;28;20083;-52
2023/02/09 13:02:56;;;;;;;21.33;14.93;;;;;;;;;;5056115;28;20049;-53
2023/02/09 13:05:32;;;;;;;21.00;12.97;;;;;;;;;;5055384;28;20060;-53
2023/02/09 13:08:01;;;;;;;16.77;13.00;;;;;;;;;;5055030;28;20044;-57
2023/02/09 13:10:37;;;;;;;18.70;12.93;;;;;;;;;;5055105;28;20025;-53
2023/02/09 13:13:12;;;;;;;14.05;11.77;;;;;;;;;;5055370;28;20074;-56
2023/02/09 13:15:54;;;;;;;17.27;12.70;;;;;;;;;;5055059;28;20416;-56
2023/02/09 13:18:32;;;;;;;17.83;12.30;;;;;;;;;;5055266;28;20025;-57
2023/02/09 13:21:10;;;;;;;14.80;12.60;;;;;;;;;;5054492;28;20471;-54
2023/02/09 13:24:00;;;;;;;16.57;12.57;;;;;;;;;;5054770;28;20049;-55
2023/02/09 13:26:27;;;;;;;17.07;12.27;;;;;;;;;;5054700;28;20040;-55
2023/02/09 13:29:25;;;;;;;17.17;11.00;;;;;;;;;;5055069;28;20022;-55
2023/02/09 13:32:11;;;;;;;17.35;12.18;;;;;;;;;;5042475;28;20043;-53
2023/02/09 13:34:37;;;;;;;14.70;10.95;;;;;;;;;;5054864;28;20032;-55
2023/02/09 13:37:23;;;;;;;18.58;14.30;;;;;;;;;;5054604;28;20382;-57
2023/02/09 13:39:56;;;;;;;15.60;11.90;;;;;;;;;;5054413;28;20055;-55
2023/02/09 13:42:26;;;;;;;14.85;12.18;;;;;;;;;;5054456;28;20356;-54
2023/02/09 13:44:54;;;;;;;18.00;12.38;;;;;;;;;;5054893;28;20087;-54
2023/02/09 13:47:20;;;;;;;15.07;11.48;;;;;;;;;;5054284;28;20025;-55
2023/02/09 13:50:06;;;;;;;20.53;12.83;;;;;;;;;;5054600;28;20500;-57
2023/02/09 13:52:36;;;;;;;14.15;10.85;;;;;;;;;;5050536;28;20041;-57
2023/02/09 13:55:30;;;;;;;16.35;12.40;;;;;;;;;;5054632;28;20024;-56
2023/02/09 13:58:03;;;;;;;13.80;10.88;;;;;;;;;;5052782;28;20087;-56
2023/02/09 14:00:39;;;;;;;22.07;12.10;;;;;;;;;;5054846;28;20040;-57
2023/02/09 14:03:11;;;;;;;22.55;14.35;;;;;;;;;;5054701;28;20084;-55
2023/02/09 14:05:46;;;;;;;16.58;11.73;;;;;;;;;;5054582;28;20033;-57
2023/02/09 14:08:13;;;;;;;16.43;12.13;;;;;;;;;;5053895;28;20087;-56
2023/02/09 14:10:41;;;;;;;17.67;11.93;;;;;;;;;;5053629;28;20493;-56
2023/02/09 14:13:37;;;;;;;13.53;11.23;;;;;;;;;;5053828;28;20025;-57
2023/02/09 14:16:06;;;;;;;17.87;14.23;;;;;;;;;;5051177;28;20048;-54
2023/02/09 14:18:35;;;;;;;15.07;11.43;;;;;;;;;;5054640;28;20425;-56
2023/02/09 14:21:21;;;;;;;17.27;12.23;;;;;;;;;;5053828;28;20467;-54
2023/02/09 14:23:47;;;;;;;15.85;12.35;;;;;;;;;;5054018;28;20111;-57
2023/02/09 14:26:13;;;;;;;17.27;12.63;;;;;;;;;;5053778;28;20116;-57
2023/02/09 14:28:40;;;;;;;18.17;13.18;;;;;;;;;;5053728;28;20029;-55
2023/02/09 14:31:14;;;;;;;18.55;12.68;;;;;;;;;;5054161;28;20056;-57
2023/02/09 14:33:40;;;;;;;15.60;12.25;;;;;;;;;;5053737;28;20096;-56
2023/02/09 14:36:19;;;;;;;17.73;12.88;;;;;;;;;;5054009;28;20061;-57
2023/02/09 14:38:46;;;;;;;20.10;14.88;;;;;;;;;;5054009;28;20052;-56
2023/02/09 14:41:21;;;;;;;18.05;12.43;;;;;;;;;;5052390;28;20126;-54